Time;durP1;ratioP1;P1;durP2;ratioP2;P2;SDS_P1;SDS_P2;PMS_P1;PMS_P2;Temp;Humidity;BMP_temperature;BMP_pressure;BME280_temperature;BME280_humidity;BME280_pressure;Samples;Min_cycle;Max_cycle;Signal;HPM_P1;HPM_P2
2023/07/10 00:01:29;;;;;;;5.40;4.15;;;;;;;-145.68;45.10;73060.09;10532815;28;20698;-75
2023/07/10 00:06:30;;;;;;;5.18;4.13;;;;;;;-145.68;44.70;73044.09;10515522;28;20221;-74
2023/07/10 00:11:30;;;;;;;8.40;4.75;;;;;;;-145.68;44.81;73044.09;10541932;28;20225;-74
2023/07/10 00:16:31;;;;;;;7.05;4.95;;;;;;;-145.68;44.75;73036.09;10524073;28;20198;-74
2023/07/10 00:21:31;;;;;;;7.55;5.07;;;;;;;-145.68;44.60;73040.09;10541655;28;20175;-75
2023/07/10 00:26:32;;;;;;;6.65;4.97;;;;;;;-145.68;44.22;73014.13;10542005;28;20251;-74
2023/07/10 00:31:33;;;;;;;6.43;4.80;;;;;;;-145.68;44.21;73008.13;10522574;28;20234;-74
2023/07/10 00:36:35;;;;;;;6.20;4.50;;;;;;;-145.68;43.67;72976.16;10541459;28;20557;-75
2023/07/10 00:41:37;;;;;;;8.57;4.95;;;;;;;-145.68;43.41;72972.16;10522625;28;20678;-74
2023/07/10 00:46:41;;;;;;;9.85;4.68;;;;;;;-145.68;43.41;72962.16;10522465;28;20202;-74
2023/07/10 00:51:50;;;;;;;6.32;5.03;;;;;;;-145.68;43.44;72960.16;10522692;28;20217;-74
2023/07/10 00:56:51;;;;;;;5.78;4.75;;;;;;;-145.68;43.19;72940.16;10522174;28;20199;-74
2023/07/10 01:02:16;;;;;;;7.68;4.68;;;;;;;-145.68;43.18;72934.19;10521689;28;20274;-75
2023/07/10 01:07:17;;;;;;;6.35;4.68;;;;;;;-145.68;43.11;72924.19;10539862;28;20245;-74
2023/07/10 01:12:18;;;;;;;6.95;4.82;;;;;;;-145.68;43.10;72918.19;10521920;28;20654;-75
2023/07/10 01:17:19;;;;;;;11.77;4.53;;;;;;;-145.68;43.08;72904.19;10538282;28;20193;-75
2023/07/10 01:22:19;;;;;;;8.55;4.65;;;;;;;-145.68;42.38;72876.22;10521450;28;20646;-75
2023/07/10 01:27:21;;;;;;;7.50;4.93;;;;;;;-145.68;42.32;72864.22;10520905;28;20215;-75
2023/07/10 01:32:21;;;;;;;6.75;5.18;;;;;;;-145.68;42.00;72834.25;10520790;28;20222;-75
2023/07/10 01:37:22;;;;;;;5.63;4.57;;;;;;;-145.68;41.08;72786.28;10504111;28;20202;-75
2023/07/10 01:42:22;;;;;;;5.45;4.25;;;;;;;-145.68;40.35;72736.31;10520306;28;20195;-75
2023/07/10 01:47:23;;;;;;;7.45;4.55;;;;;;;-145.68;39.89;72702.34;10538187;28;20210;-75
2023/07/10 01:52:24;;;;;;;12.02;4.93;;;;;;;-145.68;39.80;72768.31;10520209;28;20256;-75
2023/07/10 01:57:25;;;;;;;5.57;4.60;;;;;;;-145.68;39.71;72748.31;10537892;28;20669;-75
2023/07/10 02:02:25;;;;;;;11.63;5.35;;;;;;;-145.68;42.22;72780.28;10520504;28;20195;-75
2023/07/10 02:07:26;;;;;;;14.50;5.00;;;;;;;-145.68;46.80;72820.25;10537500;28;20206;-75
2023/07/10 02:12:26;;;;;;;10.70;5.35;;;;;;;-145.68;53.42;72894.22;10519403;28;20658;-73
2023/07/10 02:17:27;;;;;;;15.52;6.45;;;;;;;-145.68;62.74;73032.09;10537185;28;20183;-73
2023/07/10 02:22:27;;;;;;;10.70;6.00;;;;;;;-145.68;81.56;73172.00;10537020;28;20224;-74
2023/07/10 02:27:28;;;;;;;15.45;7.68;;;;;;;-145.68;96.52;73273.94;10536588;28;20293;-73
2023/07/10 02:32:28;;;;;;;17.45;6.97;;;;;;;-145.68;100.00;73337.91;10534344;28;20230;-73
2023/07/10 02:37:29;;;;;;;10.82;6.30;;;;;;;-145.68;100.00;73353.88;10518450;28;20681;-74
2023/07/10 02:42:29;;;;;;;15.07;6.88;;;;;;;-145.68;100.00;73343.88;10536066;28;20186;-74
2023/07/10 02:47:30;;;;;;;12.23;8.05;;;;;;;-145.68;100.00;73371.88;10535856;28;20242;-75
2023/07/10 02:52:31;;;;;;;12.00;7.35;;;;;;;-145.68;100.00;73373.88;10536023;28;20272;-74
2023/07/10 02:57:31;;;;;;;11.70;6.18;;;;;;;-145.68;100.00;73331.91;10517362;28;20205;-75
2023/07/10 03:02:31;;;;;;;12.35;6.55;;;;;;;-145.68;100.00;73329.91;10534962;28;20588;-75
2023/07/10 03:07:32;;;;;;;16.33;7.05;;;;;;;-145.68;100.00;73355.88;10513598;28;20218;-76
2023/07/10 03:12:32;;;;;;;11.35;6.88;;;;;;;-145.68;100.00;73381.88;10530669;28;20202;-75
2023/07/10 03:17:33;;;;;;;10.80;7.05;;;;;;;-145.68;100.00;73355.88;10512660;28;20995;-75
2023/07/10 03:22:33;;;;;;;10.75;6.90;;;;;;;-145.68;100.00;73363.88;10530062;28;20187;-75
2023/07/10 03:27:34;;;;;;;9.52;5.68;;;;;;;-145.68;87.37;73261.94;10530543;28;20210;-76
2023/07/10 03:32:34;;;;;;;10.70;6.18;;;;;;;-145.68;76.87;73231.97;10530427;28;20245;-76
2023/07/10 03:37:34;;;;;;;14.88;6.43;;;;;;;-145.68;73.83;73203.97;10530555;28;20209;-75
2023/07/10 03:42:35;;;;;;;10.15;5.78;;;;;;;-145.68;76.88;73223.97;10530533;28;20197;-75
2023/07/10 03:47:35;;;;;;;9.60;6.43;;;;;;;-145.68;78.65;73245.97;10530128;28;20245;-76
2023/07/10 03:52:36;;;;;;;9.57;6.32;;;;;;;-145.68;83.72;73261.94;10530197;28;20657;-75
2023/07/10 03:57:36;;;;;;;13.93;6.20;;;;;;;-145.68;85.28;73253.94;10511810;28;20287;-75
2023/07/10 04:02:36;;;;;;;6.22;5.57;;;;;;;-145.68;77.42;73207.97;10532028;28;20270;-75
2023/07/10 04:07:37;;;;;;;9.57;5.85;;;;;;;-145.68;72.84;73158.00;10533691;28;20224;-75
2023/07/10 04:12:40;;;;;;;11.75;6.18;;;;;;;-145.68;67.08;73108.06;10533907;28;20739;-75
2023/07/10 04:17:41;;;;;;;7.13;4.95;;;;;;;-145.68;64.10;73078.06;10533512;28;20187;-75
2023/07/10 04:22:41;;;;;;;7.75;4.75;;;;;;;-145.68;65.79;73092.06;10515414;28;20190;-75
2023/07/10 04:27:41;;;;;;;7.10;5.30;;;;;;;-145.68;66.33;73092.06;10533227;28;20221;-73
2023/07/10 04:32:42;;;;;;;10.98;5.55;;;;;;;-145.68;64.58;73064.09;10515526;28;20242;-76
2023/07/10 04:37:42;;;;;;;11.20;5.82;;;;;;;-145.68;63.58;73044.09;10533099;28;20216;-76
2023/07/10 04:42:42;;;;;;;7.82;5.65;;;;;;;-145.68;63.48;73038.09;10533077;28;20708;-76
2023/07/10 04:47:43;;;;;;;12.48;5.18;;;;;;;-145.68;60.38;72994.13;10532652;28;20961;-75
2023/07/10 04:52:43;;;;;;;7.38;4.80;;;;;;;-145.68;58.66;72936.19;10532726;28;20270;-75
2023/07/10 04:57:44;;;;;;;7.15;5.07;;;;;;;-145.68;59.55;72888.22;10540433;28;20191;-76
2023/07/10 05:02:44;;;;;;;7.15;5.45;;;;;;;-145.68;59.61;72850.25;10540230;28;20189;-76
2023/07/10 05:07:44;;;;;;;11.13;5.30;;;;;;;-145.68;65.18;72844.25;10540321;28;20214;-74
2023/07/10 05:12:45;;;;;;;12.50;6.68;;;;;;;-145.68;69.36;72844.25;10539793;28;20192;-74
2023/07/10 05:17:46;;;;;;;11.70;6.47;;;;;;;-145.68;72.62;72832.25;10539573;28;20551;-74
2023/07/10 05:22:47;;;;;;;6.55;5.63;;;;;;;-145.68;75.83;72814.28;10539700;28;20190;-74
2023/07/10 05:27:47;;;;;;;8.57;5.60;;;;;;;-145.68;72.47;72740.31;10539084;28;20701;-73
2023/07/10 05:32:47;;;;;;;12.20;5.82;;;;;;;-145.68;68.08;72690.38;10539125;28;20730;-73
2023/07/10 05:37:48;;;;;;;13.15;6.97;;;;;;;-145.68;66.04;72684.38;10538486;28;20246;-74
2023/07/10 05:42:49;;;;;;;10.40;5.80;;;;;;;-145.68;61.46;72634.41;10539064;28;20610;-73
2023/07/10 05:47:49;;;;;;;9.15;6.50;;;;;;;-145.68;64.30;72632.41;10537842;28;20299;-73
2023/07/10 05:52:49;;;;;;;9.88;5.70;;;;;;;-145.68;63.28;72632.41;10538508;28;20319;-73
2023/07/10 05:57:50;;;;;;;8.35;5.43;;;;;;;-145.68;61.98;72626.41;10538162;28;20193;-73
2023/07/10 06:02:50;;;;;;;7.38;5.18;;;;;;;-145.68;60.21;72558.47;10537610;28;20190;-74
2023/07/10 06:07:50;;;;;;;8.57;5.50;;;;;;;-145.68;58.88;72558.47;10536793;28;20214;-74
2023/07/10 06:12:51;;;;;;;8.25;5.00;;;;;;;-145.68;58.88;72504.53;10537394;28;20674;-74
2023/07/10 06:17:51;;;;;;;9.00;5.90;;;;;;;-145.68;58.72;72466.56;10537280;28;20825;-74
2023/07/10 06:22:51;;;;;;;9.50;5.82;;;;;;;-145.68;59.32;72468.56;10519160;28;20202;-74
2023/07/10 06:27:52;;;;;;;8.05;5.35;;;;;;;-145.68;60.34;72460.56;10518631;28;20226;-74
2023/07/10 06:32:52;;;;;;;10.00;4.90;;;;;;;-145.68;58.39;72402.59;10536744;28;20254;-73
2023/07/10 06:37:53;;;;;;;14.10;3.88;;;;;;;-145.68;43.04;72284.72;10536265;28;20206;-74
2023/07/10 06:42:53;;;;;;;12.63;4.53;;;;;;;-145.68;40.65;72212.78;10536662;28;20710;-74
2023/07/10 06:47:55;;;;;;;6.50;4.20;;;;;;;-145.68;40.14;72210.78;10517657;28;20214;-73
2023/07/10 06:52:55;;;;;;;4.88;3.88;;;;;;;-145.68;40.14;72212.78;10536175;28;20198;-73
2023/07/10 06:57:56;;;;;;;7.10;4.32;;;;;;;-145.68;40.18;72230.75;10535820;28;20194;-74
2023/07/10 07:02:56;;;;;;;7.18;3.90;;;;;;;-145.68;39.56;72198.78;10535723;28;20724;-74
2023/07/10 07:07:56;;;;;;;7.53;4.95;;;;;;;-145.68;49.01;72260.72;10535318;28;20222;-74
2023/07/10 07:12:57;;;;;;;5.95;4.13;;;;;;;-145.68;49.53;72264.72;10535406;28;20197;-74
2023/07/10 07:17:57;;;;;;;5.20;4.28;;;;;;;-145.68;49.04;72312.69;10534393;28;20187;-74
2023/07/10 07:22:58;;;;;;;6.65;4.90;;;;;;;-145.68;48.22;72332.66;10535142;28;20251;-74
2023/07/10 07:27:59;;;;;;;6.85;4.32;;;;;;;-145.68;45.98;72168.81;10516377;28;20247;-74
2023/07/10 07:32:59;;;;;;;5.78;4.13;;;;;;;-145.68;47.29;71987.00;10534769;28;20226;-74
2023/07/10 07:38:00;;;;;;;7.28;4.95;;;;;;;-145.68;46.37;71971.00;10516453;28;20207;-74
2023/07/10 07:43:00;;;;;;;7.97;4.57;;;;;;;-145.68;44.19;71773.22;10533738;28;20729;-74
2023/07/10 07:48:01;;;;;;;7.70;4.63;;;;;;;-145.68;38.72;71721.25;10533908;28;21073;-73
2023/07/10 07:53:01;;;;;;;10.53;4.57;;;;;;;-145.68;39.22;71919.06;10534132;28;20251;-74
2023/07/10 07:58:02;;;;;;;9.93;4.50;;;;;;;-145.68;37.59;71845.13;10533780;28;20432;-74
2023/07/10 08:03:02;;;;;;;4.72;4.20;;;;;;;-145.68;36.19;71723.25;10534333;28;20191;-74
2023/07/10 08:08:07;;;;;;;8.70;4.73;;;;;;;-145.68;35.35;71687.31;10533232;28;20222;-74
2023/07/10 08:13:09;;;;;;;6.15;3.78;;;;;;;-145.68;35.37;71701.28;10534096;28;20471;-74
2023/07/10 08:18:10;;;;;;;8.25;4.32;;;;;;;-145.68;35.68;71677.31;10515521;28;20193;-73
2023/07/10 08:23:10;;;;;;;7.63;4.43;;;;;;;-145.68;34.12;71621.38;10533694;28;20187;-74
2023/07/10 08:28:11;;;;;;;8.07;4.20;;;;;;;-145.68;34.09;71617.38;10534198;28;20310;-74
2023/07/10 08:33:11;;;;;;;14.23;4.80;;;;;;;-145.68;33.46;71645.34;10541242;28;20476;-74
2023/07/10 08:38:11;;;;;;;7.97;4.17;;;;;;;-145.68;33.43;71553.44;10541758;28;20483;-74
2023/07/10 08:43:25;;;;;;;9.10;4.63;;;;;;;-145.68;33.56;71483.53;10540570;28;20448;-74
2023/07/10 08:48:31;;;;;;;5.82;4.47;;;;;;;-145.68;33.27;71451.56;10540750;28;20519;-74
2023/07/10 08:53:33;;;;;;;7.40;4.55;;;;;;;-145.68;32.51;71493.50;10540365;28;20213;-74
2023/07/10 08:58:36;;;;;;;11.57;4.97;;;;;;;-145.68;32.68;71609.38;10540794;28;20179;-73
2023/07/10 09:03:46;;;;;;;8.18;4.63;;;;;;;-145.68;33.01;71501.50;10522233;28;20623;-74
2023/07/10 09:08:50;;;;;;;4.82;4.32;;;;;;;-145.68;32.10;71429.59;10522171;28;20222;-74
2023/07/10 09:13:55;;;;;;;8.32;4.38;;;;;;;-145.68;32.84;71521.47;10518642;28;20589;-74
2023/07/10 09:19:01;;;;;;;8.77;4.43;;;;;;;-145.68;33.99;71625.38;10560126;28;20865;-74
2023/07/10 09:24:05;;;;;;;6.35;4.72;;;;;;;-145.68;33.43;71557.44;10560224;28;20197;-74
2023/07/10 09:29:14;;;;;;;7.70;4.45;;;;;;;-145.68;33.65;71561.44;10577313;28;20310;-74
2023/07/10 09:34:19;;;;;;;8.05;4.65;;;;;;;-145.68;34.26;71727.25;10578749;28;20263;-76
2023/07/10 09:39:24;;;;;;;8.48;4.55;;;;;;;-145.68;34.68;71663.31;10559918;28;20198;-74
2023/07/10 09:44:33;;;;;;;9.13;5.07;;;;;;;-145.68;35.06;71729.25;10578768;28;20281;-74
2023/07/10 09:49:36;;;;;;;9.88;5.05;;;;;;;-145.68;35.22;71721.25;10577360;28;20221;-74
2023/07/10 09:54:38;;;;;;;12.75;4.70;;;;;;;-145.68;34.97;71627.38;10576315;28;20198;-74
2023/07/10 09:59:39;;;;;;;9.25;5.03;;;;;;;-145.68;34.67;71623.38;10577787;28;20177;-74
2023/07/10 10:04:41;;;;;;;8.68;4.68;;;;;;;-145.68;33.48;71445.56;10577870;28;20185;-74
2023/07/10 10:09:42;;;;;;;11.25;4.65;;;;;;;-145.68;33.21;71393.63;10556532;28;20893;-74
2023/07/10 10:14:47;;;;;;;5.40;4.87;;;;;;;-145.68;33.58;71497.50;10575950;28;20199;-74
2023/07/10 10:19:52;;;;;;;7.70;4.43;;;;;;;-145.68;33.00;71401.63;10567852;27;20424;-74
2023/07/10 10:24:52;;;;;;;8.52;5.00;;;;;;;-145.68;33.92;71617.38;10558320;28;20536;-74
2023/07/10 10:30:02;;;;;;;10.32;4.88;;;;;;;-145.68;34.91;71561.44;10556078;28;20230;-74
2023/07/10 10:35:10;;;;;;;8.65;4.63;;;;;;;-145.68;34.10;71489.50;10515829;28;20714;-74
2023/07/10 10:40:40;;;;;;;10.23;4.30;;;;;;;-145.68;32.39;71381.63;10533631;28;20255;-74
2023/07/10 10:45:45;;;;;;;9.63;4.50;;;;;;;-145.68;32.27;71401.63;10552068;28;20186;-74
2023/07/10 10:51:00;;;;;;;9.73;5.05;;;;;;;-145.68;32.87;71509.50;10555088;28;20267;-73
2023/07/10 10:56:07;;;;;;;9.52;4.60;;;;;;;-145.68;33.90;71607.38;10539050;28;20197;-73
2023/07/10 11:01:23;;;;;;;8.70;5.32;;;;;;;-145.68;34.18;71567.44;10575242;28;20190;-73
2023/07/10 11:06:32;;;;;;;12.57;5.47;;;;;;;-145.68;36.46;71657.34;10591644;27;20182;-73
2023/07/10 11:11:35;;;;;;;10.38;5.70;;;;;;;-145.68;40.12;71687.31;10578891;27;20747;-73
2023/07/10 11:16:36;;;;;;;14.48;6.13;;;;;;;-145.68;38.29;71713.28;10560967;28;20674;-74
2023/07/10 11:21:36;;;;;;;9.23;5.38;;;;;;;-145.68;37.26;71641.34;10561328;28;20239;-73
2023/07/10 11:26:36;;;;;;;9.93;5.53;;;;;;;-145.68;35.55;71481.53;10560499;28;20211;-73
2023/07/10 11:31:40;;;;;;;12.95;6.22;;;;;;;-145.68;37.43;71635.34;10578734;28;20507;-73
2023/07/10 11:36:43;;;;;;;10.18;6.80;;;;;;;-145.68;38.60;71771.22;10560632;28;20192;-73
2023/07/10 11:41:43;;;;;;;13.95;7.18;;;;;;;-145.68;38.88;71793.19;10560530;28;20210;-73
2023/07/10 11:47:04;;;;;;;15.23;7.38;;;;;;;-145.68;36.87;71553.44;10577873;28;20684;-73
2023/07/10 11:52:07;;;;;;;14.75;7.20;;;;;;;-145.68;34.85;71235.81;10558850;28;20210;-74
2023/07/10 11:57:08;;;;;;;12.30;7.18;;;;;;;-145.68;34.33;71177.88;10577193;28;20198;-74
2023/07/10 12:02:44;;;;;;;13.27;6.80;;;;;;;-145.68;34.47;71245.78;10577091;28;20194;-74
2023/07/10 12:07:51;;;;;;;11.98;6.25;;;;;;;-145.68;33.69;71211.84;10577547;27;20263;-74
2023/07/10 12:12:52;;;;;;;9.77;6.43;;;;;;;-145.68;33.28;71159.91;10586438;28;20528;-74
2023/07/10 12:17:54;;;;;;;13.10;6.60;;;;;;;-145.68;32.92;71187.84;10586439;28;20412;-73
2023/07/10 12:23:00;;;;;;;13.65;7.18;;;;;;;-145.68;33.05;71247.78;10586084;28;20194;-73
2023/07/10 12:28:03;;;;;;;12.40;7.13;;;;;;;-145.68;34.14;71271.75;10582376;28;20210;-73
2023/07/10 12:33:04;;;;;;;12.00;7.30;;;;;;;-145.68;34.17;71249.78;10582428;28;20237;-73
2023/07/10 12:38:08;;;;;;;9.98;7.45;;;;;;;-145.68;34.08;71223.81;10564494;28;20770;-73
2023/07/10 12:43:20;;;;;;;11.60;7.50;;;;;;;-145.68;36.40;71385.63;10582239;28;20390;-74
2023/07/10 12:48:20;;;;;;;13.38;8.20;;;;;;;-145.68;35.30;71321.69;10577463;28;20218;-73
2023/07/10 12:53:24;;;;;;;14.60;7.30;;;;;;;-145.68;34.55;71269.75;10564767;28;20186;-74
2023/07/10 12:58:24;;;;;;;15.10;7.40;;;;;;;-145.68;36.14;71365.66;10583398;28;20874;-74
2023/07/10 13:03:28;;;;;;;9.50;7.13;;;;;;;-145.68;37.43;71513.50;10542289;28;20204;-74
2023/07/10 13:08:40;;;;;;;11.27;6.93;;;;;;;-145.68;37.02;71537.47;10533379;28;20575;-73
2023/07/10 13:13:42;;;;;;;11.27;7.88;;;;;;;-145.68;37.39;71565.44;10545301;28;20190;-74
2023/07/10 13:18:43;;;;;;;8.98;7.10;;;;;;;-145.68;38.53;71639.34;10580593;28;20225;-74
2023/07/10 13:23:44;;;;;;;12.40;7.28;;;;;;;-145.68;38.06;71633.34;10579289;28;20641;-74
2023/07/10 13:28:45;;;;;;;8.80;6.97;;;;;;;-145.68;39.06;71683.31;10579918;28;20217;-74
2023/07/10 13:33:46;;;;;;;10.85;7.55;;;;;;;-145.68;40.10;71767.22;10579453;28;20241;-74
2023/07/10 13:38:47;;;;;;;10.75;6.68;;;;;;;-145.68;39.30;71629.38;10578364;28;20284;-73
2023/07/10 13:43:47;;;;;;;9.70;6.70;;;;;;;-145.68;38.57;71617.38;10577850;28;20196;-74
2023/07/10 13:48:49;;;;;;;10.07;6.70;;;;;;;-145.68;40.12;71731.25;10578363;28;20212;-74
2023/07/10 13:53:51;;;;;;;12.82;7.50;;;;;;;-145.68;41.41;71821.16;10577467;28;20189;-73
2023/07/10 13:58:52;;;;;;;14.23;9.40;;;;;;;-145.68;43.69;71957.03;10578723;28;20196;-73
2023/07/10 14:03:53;;;;;;;17.20;10.50;;;;;;;-145.68;44.60;71931.06;10578570;28;20610;-74
2023/07/10 14:08:55;;;;;;;14.50;8.75;;;;;;;-145.68;43.99;71903.06;10578336;28;20226;-75
2023/07/10 14:13:56;;;;;;;8.95;7.53;;;;;;;-145.68;44.12;71879.09;10577706;27;20182;-75
2023/07/10 14:18:57;;;;;;;9.43;7.97;;;;;;;-145.68;44.19;71955.03;10589215;27;20718;-75
2023/07/10 14:23:57;;;;;;;9.82;7.30;;;;;;;-145.68;45.75;72048.94;10578043;27;21025;-75
2023/07/10 14:28:58;;;;;;;9.25;7.22;;;;;;;-145.68;47.37;72154.84;10557994;28;20217;-76
2023/07/10 14:34:49;;;;;;;11.40;7.00;;;;;;;-145.68;48.05;72132.84;10577504;28;20230;-72
2023/07/10 14:39:50;;;;;;;12.35;7.22;;;;;;;-145.68;46.46;72050.94;10576398;28;20744;-73
2023/07/10 14:44:50;;;;;;;9.70;6.65;;;;;;;-145.68;46.08;72040.94;10576485;28;20186;-73
2023/07/10 14:49:51;;;;;;;12.23;6.35;;;;;;;-145.68;44.47;71929.06;10576496;28;20222;-73
2023/07/10 14:54:55;;;;;;;11.65;6.85;;;;;;;-145.68;45.53;72022.97;10576466;28;20185;-73
2023/07/10 14:59:58;;;;;;;10.02;7.68;;;;;;;-145.68;48.09;72194.78;10576314;28;20234;-75
2023/07/10 15:04:58;;;;;;;9.30;7.15;;;;;;;-145.68;48.25;72182.81;10575990;28;20194;-75
2023/07/10 15:09:58;;;;;;;10.60;9.50;;;;;;;-145.68;48.25;72154.84;10575163;28;20220;-75
2023/07/10 15:14:59;;;;;;;16.60;11.88;;;;;;;-145.68;49.11;72240.75;10576094;28;20230;-76
2023/07/10 15:19:59;;;;;;;14.15;11.07;;;;;;;-145.68;49.79;72304.69;10575373;28;20374;-75
2023/07/10 15:24:59;;;;;;;13.40;10.65;;;;;;;-145.68;50.13;72312.69;10575501;28;20337;-75
2023/07/10 15:30:00;;;;;;;10.88;8.30;;;;;;;-145.68;48.76;72204.78;10574747;28;20346;-76
2023/07/10 15:35:00;;;;;;;12.55;7.90;;;;;;;-145.68;47.65;72164.81;10575007;28;20223;-75
2023/07/10 15:40:00;;;;;;;10.40;7.60;;;;;;;-145.68;46.15;72058.94;10574233;28;20257;-75
2023/07/10 15:45:01;;;;;;;12.27;7.37;;;;;;;-145.68;44.92;72000.97;10574715;28;20443;-76
2023/07/10 15:50:01;;;;;;;10.23;8.18;;;;;;;-145.68;46.04;72106.88;10574614;28;20471;-76
2023/07/10 15:55:27;;;;;;;13.48;8.07;;;;;;;-145.68;47.37;72194.78;10574760;28;20190;-75
2023/07/10 16:00:36;;;;;;;9.10;7.00;;;;;;;-145.68;46.72;72164.81;10574127;28;20182;-76
2023/07/10 16:05:36;;;;;;;11.70;6.82;;;;;;;-145.68;48.30;72276.72;10556136;28;20691;-76
2023/07/10 16:10:36;;;;;;;10.90;6.57;;;;;;;-145.68;48.40;72292.72;10574653;28;20248;-75
2023/07/10 16:15:37;;;;;;;8.32;6.85;;;;;;;-145.68;47.76;72244.75;10576077;28;20246;-75
2023/07/10 16:20:37;;;;;;;6.15;5.30;;;;;;;-145.68;47.15;72176.81;10575888;28;20182;-75
2023/07/10 16:25:37;;;;;;;10.63;6.22;;;;;;;-145.68;47.97;72242.75;10575414;28;20247;-75
2023/07/10 16:30:39;;;;;;;8.35;5.78;;;;;;;-145.68;47.82;72292.72;10575060;28;20266;-76
2023/07/10 16:35:39;;;;;;;5.45;4.93;;;;;;;-145.68;48.05;72276.72;10548563;28;20234;-75
2023/07/10 16:40:43;;;;;;;6.05;5.05;;;;;;;-145.68;46.40;72232.75;10514756;28;20705;-75
2023/07/10 16:45:45;;;;;;;7.43;4.82;;;;;;;-145.68;46.84;72258.75;10533379;28;20202;-75
2023/07/10 16:50:46;;;;;;;5.65;4.43;;;;;;;-145.68;47.19;72298.69;10517608;28;20682;-75
2023/07/10 16:55:47;;;;;;;7.53;4.60;;;;;;;-145.68;47.71;72350.66;10541288;28;20178;-73
2023/07/10 17:00:47;;;;;;;5.13;4.18;;;;;;;-145.68;48.14;72422.59;10540265;28;20186;-73
2023/07/10 17:05:48;;;;;;;7.82;4.22;;;;;;;-145.68;48.96;72462.56;10522090;28;20175;-76
2023/07/10 17:10:51;;;;;;;7.78;4.20;;;;;;;-145.68;49.67;72496.53;10540065;28;20210;-75
2023/07/10 17:15:54;;;;;;;7.70;4.40;;;;;;;-145.68;49.48;72520.50;10539851;28;20187;-75
2023/07/10 17:20:57;;;;;;;9.32;4.70;;;;;;;-145.68;50.21;72526.50;10539818;28;20198;-75
2023/07/10 17:25:58;;;;;;;5.97;4.38;;;;;;;-145.68;50.02;72536.50;10539401;28;20191;-75
2023/07/10 17:31:00;;;;;;;5.43;3.90;;;;;;;-145.68;50.51;72560.47;10539184;28;20571;-76
2023/07/10 17:36:02;;;;;;;7.57;4.28;;;;;;;-145.68;51.26;72588.44;10521018;28;20734;-75
2023/07/10 17:41:04;;;;;;;5.50;3.97;;;;;;;-145.68;50.90;72554.47;10538836;28;20697;-75
2023/07/10 17:46:05;;;;;;;7.70;4.22;;;;;;;-145.68;50.67;72530.50;10538874;28;20186;-75
2023/07/10 17:51:21;;;;;;;5.82;4.68;;;;;;;-145.68;50.12;72514.50;10520133;28;20580;-75
2023/07/10 17:56:22;;;;;;;3.70;3.38;;;;;;;-145.68;50.03;72522.50;10520429;28;20194;-75
2023/07/10 18:01:24;;;;;;;8.00;4.38;;;;;;;-145.68;50.43;72538.50;10537614;28;20198;-75
2023/07/10 18:06:25;;;;;;;7.90;4.40;;;;;;;-145.68;50.66;72548.47;10519914;28;20187;-75
2023/07/10 18:11:33;;;;;;;5.30;4.47;;;;;;;-145.68;51.16;72580.47;10537394;28;20218;-75
2023/07/10 18:16:33;;;;;;;5.63;3.75;;;;;;;-145.68;51.64;72602.44;10519781;28;20825;-75
2023/07/10 18:21:33;;;;;;;5.95;4.72;;;;;;;-145.68;52.76;72662.38;10518947;28;20194;-75
2023/07/10 18:26:34;;;;;;;5.70;4.63;;;;;;;-145.68;52.84;72692.38;10537302;28;20187;-75
2023/07/10 18:31:34;;;;;;;8.13;5.13;;;;;;;-145.68;53.47;72736.31;10536912;28;20235;-75
2023/07/10 18:36:34;;;;;;;7.07;4.50;;;;;;;-145.68;53.81;72742.31;10536452;28;20232;-74
2023/07/10 18:41:35;;;;;;;4.97;4.20;;;;;;;-145.68;54.13;72748.31;10536326;28;20214;-75
2023/07/10 18:46:36;;;;;;;8.80;4.63;;;;;;;-145.68;54.14;72750.31;10518362;28;20199;-75
2023/07/10 18:51:36;;;;;;;6.82;4.32;;;;;;;-145.68;55.08;72764.31;10534511;28;20226;-77
2023/07/10 18:56:36;;;;;;;8.02;4.18;;;;;;;-145.68;55.79;72784.28;10535003;28;20229;-77
2023/07/10 19:01:38;;;;;;;6.70;4.30;;;;;;;-145.68;56.58;72800.28;10534523;28;20240;-77
2023/07/10 19:06:39;;;;;;;7.00;4.90;;;;;;;-145.68;58.25;72874.22;10534535;28;20195;-77
2023/07/10 19:11:41;;;;;;;6.72;5.20;;;;;;;-145.68;60.59;72920.19;10532999;28;20678;-77
2023/07/10 19:16:42;;;;;;;6.82;4.68;;;;;;;-145.68;61.84;72958.16;10534312;28;20239;-77
2023/07/10 19:21:42;;;;;;;11.07;4.72;;;;;;;-145.68;62.94;72980.13;10534139;28;20707;-77
2023/07/10 19:26:43;;;;;;;8.50;5.00;;;;;;;-145.68;64.97;73044.09;10534050;28;20186;-77
2023/07/10 19:31:51;;;;;;;9.25;5.35;;;;;;;-145.68;65.94;73050.09;10533485;28;20740;-77
2023/07/10 19:36:51;;;;;;;6.47;4.65;;;;;;;-145.68;66.73;73036.09;10499077;28;20255;-77
2023/07/10 19:42:30;;;;;;;9.10;5.55;;;;;;;-145.68;69.10;73086.06;10515427;28;20209;-77
2023/07/10 19:47:31;;;;;;;7.15;5.43;;;;;;;-145.68;71.39;73160.00;10515053;28;20195;-77
2023/07/10 19:52:31;;;;;;;8.15;5.85;;;;;;;-145.68;73.29;73164.00;10531935;28;20198;-76
2023/07/10 19:57:33;;;;;;;8.93;5.63;;;;;;;-145.68;75.00;73192.00;10533636;28;20603;-76
2023/07/10 20:02:33;;;;;;;7.80;5.20;;;;;;;-145.68;77.34;73200.00;10530412;28;20198;-77
2023/07/10 20:07:33;;;;;;;7.50;5.75;;;;;;;-145.68;79.94;73241.97;10531397;28;20670;-76
2023/07/10 20:12:34;;;;;;;6.75;5.22;;;;;;;-145.68;81.21;73259.94;10530995;28;20194;-74
2023/07/10 20:17:36;;;;;;;7.25;5.15;;;;;;;-145.68;84.15;73285.94;10530097;28;20185;-74
2023/07/10 20:22:45;;;;;;;7.65;5.20;;;;;;;-145.68;86.29;73313.91;10513645;28;20210;-74
2023/07/10 20:27:47;;;;;;;9.15;5.00;;;;;;;-145.68;88.03;73307.91;10539133;28;20195;-74
2023/07/10 20:32:48;;;;;;;6.03;5.25;;;;;;;-145.68;89.56;73329.91;10521322;28;20262;-74
2023/07/10 20:37:48;;;;;;;8.85;6.00;;;;;;;-145.68;93.14;73355.88;10539912;28;20209;-74
2023/07/10 20:42:49;;;;;;;6.35;5.55;;;;;;;-145.68;97.78;73369.88;10539524;28;20202;-74
2023/07/10 20:47:50;;;;;;;11.55;5.70;;;;;;;-145.68;98.33;73373.88;10539885;28;20187;-74
2023/07/10 20:52:50;;;;;;;13.98;6.22;;;;;;;-145.68;100.00;73413.84;10521183;28;20272;-74
2023/07/10 20:57:50;;;;;;;8.23;6.22;;;;;;;-145.68;100.00;73423.84;10538976;28;20294;-74
2023/07/10 21:02:51;;;;;;;9.45;6.03;;;;;;;-145.68;100.00;73427.84;10538302;28;20179;-74
2023/07/10 21:07:51;;;;;;;7.72;6.22;;;;;;;-145.68;100.00;73447.81;10519547;28;20239;-74
2023/07/10 21:12:51;;;;;;;8.57;5.82;;;;;;;-145.68;100.00;73451.81;10537841;28;20190;-75
2023/07/10 21:17:52;;;;;;;8.95;6.28;;;;;;;-145.68;100.00;73465.81;10538587;28;20186;-74
2023/07/10 21:22:54;;;;;;;8.85;6.22;;;;;;;-145.68;100.00;73483.81;10542526;28;20641;-74
2023/07/10 21:27:54;;;;;;;7.82;6.53;;;;;;;-145.68;100.00;73495.78;10580197;28;20868;-74
2023/07/10 21:32:55;;;;;;;10.15;6.47;;;;;;;-145.68;100.00;73503.78;10579906;28;20225;-75
2023/07/10 21:37:56;;;;;;;8.63;6.68;;;;;;;-145.68;100.00;73529.78;10579270;28;20202;-75
2023/07/10 21:42:56;;;;;;;9.57;7.45;;;;;;;-145.68;100.00;73531.78;10560878;28;20197;-74
2023/07/10 21:47:59;;;;;;;7.47;6.78;;;;;;;-145.68;100.00;73545.78;10561675;28;20296;-75
2023/07/10 21:52:59;;;;;;;11.00;7.43;;;;;;;-145.68;100.00;73545.78;10544289;28;20189;-75
2023/07/10 21:58:00;;;;;;;12.07;7.50;;;;;;;-145.68;100.00;73545.78;10560852;28;20194;-74
2023/07/10 22:03:00;;;;;;;10.75;7.15;;;;;;;-145.68;100.00;73547.75;10560285;28;20190;-74
2023/07/10 22:08:00;;;;;;;8.98;7.10;;;;;;;-145.68;100.00;73553.75;10559927;28;20341;-74
2023/07/10 22:13:01;;;;;;;11.93;7.70;;;;;;;-145.68;100.00;73567.75;10578441;28;20193;-74
2023/07/10 22:18:02;;;;;;;9.25;7.40;;;;;;;-145.68;100.00;73571.75;10559965;28;20695;-74
2023/07/10 22:23:02;;;;;;;14.50;7.93;;;;;;;-145.68;100.00;73585.75;10578111;28;20598;-74
2023/07/10 22:28:11;;;;;;;11.30;8.10;;;;;;;-145.68;100.00;73573.75;10577186;28;20218;-74
2023/07/10 22:33:13;;;;;;;10.95;7.35;;;;;;;-145.68;100.00;73579.75;10537942;28;20245;-74
2023/07/10 22:38:16;;;;;;;10.10;7.57;;;;;;;-145.68;100.00;73581.75;10537026;28;20202;-74
2023/07/10 22:43:25;;;;;;;8.65;7.03;;;;;;;-145.68;100.00;73593.75;10536183;28;20662;-74